Cincinnati, OH (45201)

5:23 PM EST on December 06, 2016 (GMT -0500)
Norwood | | Change Station

Elev 620 ft 39.15 °N, 84.45 °W | Updated 48 seconds ago

Overcast
Overcast
43.0 °F
Feels Like 40 °F
N
5.0
Wind Variable Wind from NNE

Today
High -- | Low -- °F
--% Chance of Precip.
Yesterday
High -- | Low -- °F
Precip. -- in
Pressure 29.81 in
Visibility 10.0 miles
Clouds Overcast 1300 ft
Windchill 40 °F
Dew Point 40 °F
Humidity 90%
Rainfall 0.00 in
Snow Depth Not available.
7:43 AM 5:14 PM
Waxing Crescent, 45% visible
METAR KLUK 062153Z 28007KT 10SM OVC013 07/05 A2980 RMK AO2 PRESRR SLP094 T00720050
Pressure 29.81 in
Visibility 10.0 miles
Clouds Overcast 1300 ft
Windchill 40 °F
Dew Point 40 °F
Humidity 90%
Rainfall 0.00 in
Snow Depth Not available.
7:43 AM 5:14 PM
Waxing Crescent, 45% visible
METAR KLUK 062153Z 28007KT 10SM OVC013 07/05 A2980 RMK AO2 PRESRR SLP094 T00720050

10-Day Weather Forecast

Almanac

Astronomy

Dec. 06, 2016 Rise Set
Actual Time
Civil Twilight
Nautical Twilight
Astronomical Twilight
Moon
Length of Visible Light
Length of Day
Tomorrow will be .
, % of the Moon is Illuminated

Today's Extremes

State Highs State Lows

Community

WunderPhotos

Upload Photos

1,956,038 photos uploaded!

WunderBlog® & News

Nearby

Air Quality

  Air Quality AQ Index Pollutant
Not available.

Snow Depth

Station Depth Elevation

Earthquake Activity

City Distance Mag. Time & Date
Minimum magnitude displayed is 2.5.

Coastal Water Temperatures

Place Temperature

Stations

Nearby Weather Stations

Station Location Temp. Windchill Dew Point Humidity Wind Precip. Elev Updated Type
                   

Watches & Warnings

There are currently no watches in effect.